Aeroporto :
LOGIN :

Iscrizione | Disclaimer

   EN    FR    IT 

 










Sommario :    VFR   VFR Marginale   IFR   IFR Intensivo   IFR Molto Intensivo
Visibilità : 
Base nubi : 
>= 8 km
>= 3000ft
5 / 8 km
1000 / 3000 ft
1500m / 5 km
500 / 1000 ft
800 / 1500m
200 / 500 ft
< 800m
< 200 ft
Simboli :   Temporali  Nebbia  Neve Forte  Precipitazioni Forti  Vento > 20 kt
SIGMETs :   Varie  Temporali  Ghiacco  Turbolenza  Onda orograficha  Ceneri Vulcaniche






- Altitudine del aeroporto : 1504 ft
- Codice IATA : PNA


LEPP - Noain Pamplona

ULTIMO METAR :
  • 280730Z 33002KT 9999 SCT036 BKN043 08/06 Q1018

METARs OBSOLETI :
  • 280700Z 33003KT 260V070 9999 BKN040 07/05 Q1018
  • 280630Z VRB02KT 9999 SCT043 08/05 Q1017
  • 280600Z VRB02KT 9999 SCT042 08/05 Q1017
  • 280530Z 07003KT 040V110 CAVOK 08/05 Q1016
  • 280500Z 29003KT 9999 FEW050 09/06 Q1016

TAF TAF LEPP
Valido dal 28 a 03 ore il 29 a 03 ore UTC


280200Z 2803/2903 VRB05KT 9999 SCT020 BKN035 TX10/2815Z TN04/2807Z
TEMPO 2803/2809 3000 -RA BR BKN010
PROB40
TEMPO 2803/2809 3000 -RA BR BKN010



MetMap, La meteo Aeronautica in un colpo d'occhio ! - Copyright ORBIFLY Dicembre 2007 - Disclaimer

ORBIFLY MET'MAP TEAM :

Programmazione e sviluppo : Alexandra Zaïnal
Concezione : Baudouin d'Aumeries
Aiuto per la programmazione : Marc-Olivier Méhu
Supporto tecnico e logistico : Manuel Goepfert
Aiuto per la traduzione : Arnaldo La Scala

Contatto : metmap@orbifly.com




FONTI E CREDITI :

   NOAA